AFR647 FMEE-LFPG
Flight info
| Callsign | AFR647 |
|---|---|
| Flight time | N/A |
| Altitude | 32000 |
| Route | UVENA2N UVENA UN304 DENLI/N0493F330 UN304 APKAK/N0489F320 UN304 MOGDU/N0489F340 UN304 DWA DCT XADOX DCT KONET/N0483F350 UG650 RASKA/N0480F340 T513 EGMEG/N0476F350 G660 JDW/N0476F360 L677 CVO L617 TANSA DCT KOR DCT TUMBO/N0465F380 DCT TIRCA DCT RODON DCT VAKSU DCT BAXON DCT TZO DCT SRN DCT CERVI DCT MOLUS DCT UNKIR DCT GIVRI/N0461F360 DCT TINIL |
| Aircraft | B772/H-SDE2E3FGHIJ5LORVWXY/LB1D1 |
Departure
| Time | 2026-04-14 23:02 |
|---|---|
| Airport | Roland Garros Airport (FMEE) |
Arrival
| Time | N/A |
|---|---|
| Airport | Charles de Gaulle International Airport (LFPG) |
| Time | Latitude | Longitude | Altitude | Speed | Heading |
|---|---|---|---|---|---|
| 2026-04-14 22:24 | -20.89106 | 55.51303 | 116 ft | 0 kts | 207° |
| 2026-04-14 22:48 | -20.89098 | 55.51307 | 114 ft | 2 kts | 207° |
| 2026-04-14 22:48 | -20.89085 | 55.51315 | 113 ft | 2 kts | 207° |
| 2026-04-14 22:48 | -20.89072 | 55.51322 | 112 ft | 2 kts | 207° |
| 2026-04-14 22:49 | -20.89058 | 55.51329 | 112 ft | 2 kts | 207° |
| 2026-04-14 22:49 | -20.89046 | 55.51339 | 111 ft | 2 kts | 244° |
| 2026-04-14 22:49 | -20.89043 | 55.51354 | 111 ft | 2 kts | 282° |
| 2026-04-14 22:49 | -20.89045 | 55.51361 | 111 ft | 1 kts | 298° |
| 2026-04-14 22:50 | -20.89047 | 55.51365 | 111 ft | 0 kts | 296° |
| 2026-04-14 22:55 | -20.89047 | 55.51364 | 110 ft | 0 kts | 296° |
| 2026-04-14 22:57 | -20.89044 | 55.51357 | 109 ft | 3 kts | 296° |
| 2026-04-14 22:57 | -20.89024 | 55.51313 | 108 ft | 9 kts | 295° |
| 2026-04-14 22:57 | -20.88985 | 55.51228 | 105 ft | 15 kts | 300° |
| 2026-04-14 22:57 | -20.88910 | 55.51177 | 101 ft | 13 kts | 342° |
| 2026-04-14 22:58 | -20.88801 | 55.51140 | 94 ft | 18 kts | 341° |
| 2026-04-14 22:58 | -20.88714 | 55.51045 | 91 ft | 19 kts | 282° |
| 2026-04-14 22:58 | -20.88688 | 55.50905 | 90 ft | 19 kts | 284° |
| 2026-04-14 22:58 | -20.88656 | 55.50759 | 89 ft | 20 kts | 282° |
| 2026-04-14 22:59 | -20.88623 | 55.50602 | 87 ft | 22 kts | 282° |
| 2026-04-14 22:59 | -20.88579 | 55.50508 | 84 ft | 12 kts | 303° |
| 2026-04-14 22:59 | -20.88573 | 55.50489 | 83 ft | 2 kts | 278° |
| 2026-04-14 22:59 | -20.88578 | 55.50480 | 83 ft | 1 kts | 213° |
| 2026-04-14 23:00 | -20.88589 | 55.50480 | 83 ft | 2 kts | 164° |
| 2026-04-14 23:00 | -20.88601 | 55.50496 | 84 ft | 2 kts | 104° |
| 2026-04-14 23:00 | -20.88603 | 55.50503 | 84 ft | 1 kts | 103° |
| 2026-04-14 23:00 | -20.88608 | 55.50526 | 85 ft | 5 kts | 103° |
| 2026-04-14 23:01 | -20.88630 | 55.50629 | 88 ft | 33 kts | 101° |
| 2026-04-14 23:01 | -20.88722 | 55.51099 | 92 ft | 95 kts | 100° |
| 2026-04-14 23:01 | -20.88908 | 55.52004 | 91 ft | 150 kts | 102° |
| 2026-04-14 23:01 | -20.89163 | 55.53252 | 154 ft | 185 kts | 103° |
| 2026-04-14 23:02 | -20.89403 | 55.54580 | 715 ft | 185 kts | 101° |
| 2026-04-14 23:02 | -20.89431 | 55.54765 | 789 ft | 187 kts | 100° |
| 2026-04-14 23:02 | -20.89327 | 55.56119 | 1325 ft | 195 kts | 69° |
| 2026-04-14 23:03 | -20.88405 | 55.57259 | 1498 ft | 217 kts | 28° |
| 2026-04-14 23:03 | -20.86854 | 55.57527 | 1658 ft | 240 kts | 353° |
| 2026-04-14 23:03 | -20.85131 | 55.57258 | 1949 ft | 257 kts | 351° |
| 2026-04-14 23:03 | -20.83355 | 55.56938 | 2476 ft | 264 kts | 351° |
| 2026-04-14 23:04 | -20.81607 | 55.56617 | 3071 ft | 266 kts | 351° |
| 2026-04-14 23:04 | -20.79773 | 55.56286 | 3717 ft | 268 kts | 351° |
| 2026-04-14 23:04 | -20.78010 | 55.55956 | 4223 ft | 273 kts | 346° |
| 2026-04-14 23:04 | -20.76371 | 55.55351 | 4791 ft | 275 kts | 337° |
| 2026-04-14 23:05 | -20.74590 | 55.54544 | 5385 ft | 278 kts | 337° |
| 2026-04-14 23:05 | -20.72776 | 55.53731 | 5693 ft | 293 kts | 337° |
| 2026-04-14 23:05 | -20.70813 | 55.52869 | 5983 ft | 309 kts | 338° |
| 2026-04-14 23:05 | -20.68755 | 55.51971 | 6269 ft | 325 kts | 338° |
| 2026-04-14 23:06 | -20.66593 | 55.51030 | 6578 ft | 339 kts | 338° |
| 2026-04-14 23:06 | -20.64374 | 55.50066 | 6898 ft | 352 kts | 338° |
| 2026-04-14 23:06 | -20.62052 | 55.49056 | 7413 ft | 358 kts | 337° |
| 2026-04-14 23:06 | -20.59747 | 55.48053 | 8064 ft | 360 kts | 337° |
| 2026-04-14 23:07 | -20.57441 | 55.47051 | 8680 ft | 362 kts | 337° |
| 2026-04-14 23:07 | -20.55181 | 55.46064 | 9254 ft | 364 kts | 337° |
| 2026-04-14 23:07 | -20.52824 | 55.45033 | 9837 ft | 366 kts | 337° |
| 2026-04-14 23:07 | -20.50429 | 55.43986 | 10364 ft | 371 kts | 336° |
| 2026-04-14 23:08 | -20.48019 | 55.42932 | 10894 ft | 374 kts | 336° |
| 2026-04-14 23:08 | -20.45606 | 55.41878 | 11428 ft | 377 kts | 336° |
| 2026-04-14 23:08 | -20.43190 | 55.40824 | 11931 ft | 381 kts | 336° |
| 2026-04-14 23:08 | -20.40691 | 55.39733 | 12440 ft | 384 kts | 336° |
| 2026-04-14 23:09 | -20.38193 | 55.38643 | 12929 ft | 388 kts | 336° |
| 2026-04-14 23:09 | -20.35681 | 55.37548 | 13429 ft | 391 kts | 336° |
| 2026-04-14 23:09 | -20.33142 | 55.36441 | 13937 ft | 394 kts | 336° |
| 2026-04-14 23:09 | -20.30591 | 55.35329 | 14429 ft | 397 kts | 336° |
| 2026-04-14 23:10 | -20.28045 | 55.34220 | 14924 ft | 399 kts | 336° |
| 2026-04-14 23:10 | -20.25465 | 55.33096 | 15430 ft | 401 kts | 336° |
| 2026-04-14 23:10 | -20.22830 | 55.31950 | 15912 ft | 404 kts | 336° |
| 2026-04-14 23:10 | -20.20226 | 55.30817 | 16383 ft | 407 kts | 336° |
| 2026-04-14 23:11 | -20.17610 | 55.29678 | 16836 ft | 410 kts | 336° |
| 2026-04-14 23:11 | -20.14944 | 55.28519 | 17280 ft | 413 kts | 336° |
| 2026-04-14 23:11 | -20.12275 | 55.27359 | 17733 ft | 416 kts | 336° |
| 2026-04-14 23:11 | -20.09592 | 55.26193 | 18170 ft | 419 kts | 336° |
| 2026-04-14 23:12 | -20.06878 | 55.25015 | 18599 ft | 422 kts | 336° |
| 2026-04-14 23:12 | -20.04116 | 55.23815 | 19036 ft | 425 kts | 336° |
| 2026-04-14 23:12 | -20.01451 | 55.22464 | 19429 ft | 427 kts | 329° |
| 2026-04-14 23:12 | -19.98817 | 55.20917 | 19829 ft | 430 kts | 329° |
| 2026-04-14 23:13 | -19.96251 | 55.19400 | 20233 ft | 433 kts | 329° |
| 2026-04-14 23:13 | -19.93599 | 55.17831 | 20644 ft | 436 kts | 329° |
| 2026-04-14 23:13 | -19.90932 | 55.16255 | 21046 ft | 439 kts | 329° |
| 2026-04-14 23:13 | -19.88214 | 55.14649 | 21466 ft | 442 kts | 329° |
| 2026-04-14 23:14 | -19.85525 | 55.13061 | 21853 ft | 445 kts | 329° |
| 2026-04-14 23:14 | -19.82818 | 55.11463 | 22229 ft | 448 kts | 329° |
| 2026-04-14 23:14 | -19.80087 | 55.09851 | 22610 ft | 450 kts | 329° |
| 2026-04-14 23:14 | -19.77323 | 55.08221 | 23026 ft | 452 kts | 329° |
| 2026-04-14 23:15 | -19.74568 | 55.06596 | 23439 ft | 454 kts | 329° |
| 2026-04-14 23:15 | -19.71809 | 55.04970 | 23830 ft | 456 kts | 329° |
| 2026-04-14 23:15 | -19.69020 | 55.03328 | 24208 ft | 458 kts | 329° |
| 2026-04-14 23:15 | -19.66232 | 55.01686 | 24580 ft | 460 kts | 329° |
| 2026-04-14 23:16 | -19.63423 | 55.00032 | 24937 ft | 463 kts | 329° |
| 2026-04-14 23:16 | -19.60589 | 54.98364 | 25282 ft | 465 kts | 329° |
| 2026-04-14 23:16 | -19.57747 | 54.96692 | 25641 ft | 467 kts | 329° |
| 2026-04-14 23:16 | -19.54913 | 54.95027 | 25977 ft | 469 kts | 329° |
| 2026-04-14 23:17 | -19.52031 | 54.93333 | 26312 ft | 471 kts | 329° |
| 2026-04-14 23:17 | -19.49148 | 54.91639 | 26639 ft | 473 kts | 329° |
| 2026-04-14 23:17 | -19.46251 | 54.89938 | 26972 ft | 474 kts | 329° |
| 2026-04-14 23:18 | -19.40464 | 54.86541 | 27591 ft | 478 kts | 329° |
| 2026-04-14 23:18 | -19.37546 | 54.84831 | 27890 ft | 480 kts | 329° |
| 2026-04-14 23:18 | -19.34620 | 54.83115 | 28183 ft | 481 kts | 329° |
| 2026-04-14 23:18 | -19.31713 | 54.81412 | 28470 ft | 483 kts | 329° |
| 2026-04-14 23:19 | -19.29487 | 54.80108 | 28684 ft | 484 kts | 329° |
| 2026-04-14 23:19 | -19.26597 | 54.78416 | 28970 ft | 486 kts | 329° |
| 2026-04-14 23:19 | -19.23619 | 54.76672 | 29248 ft | 487 kts | 329° |
| 2026-04-14 23:19 | -19.20646 | 54.74934 | 29627 ft | 486 kts | 329° |
| 2026-04-14 23:20 | -19.17731 | 54.73229 | 30099 ft | 483 kts | 329° |
| 2026-04-14 23:20 | -19.14759 | 54.71492 | 30567 ft | 480 kts | 329° |
| 2026-04-14 23:20 | -19.11853 | 54.69794 | 30963 ft | 478 kts | 329° |
| 2026-04-14 23:20 | -19.09449 | 54.68391 | 31252 ft | 477 kts | 329° |
| 2026-04-14 23:21 | -19.06533 | 54.66688 | 31571 ft | 477 kts | 329° |
| 2026-04-14 23:21 | -19.03628 | 54.64993 | 31895 ft | 476 kts | 329° |
| 2026-04-14 23:21 | -18.98897 | 54.62233 | 31988 ft | 475 kts | 329° |
| 2026-04-14 23:22 | -18.93187 | 54.58905 | 31988 ft | 474 kts | 329° |
| 2026-04-14 23:22 | -18.87383 | 54.55525 | 31989 ft | 473 kts | 329° |
| 2026-04-14 23:23 | -18.81628 | 54.52175 | 31986 ft | 475 kts | 329° |
| 2026-04-14 23:23 | -18.75831 | 54.48804 | 31985 ft | 474 kts | 329° |
| 2026-04-14 23:24 | -18.70011 | 54.45422 | 31983 ft | 475 kts | 329° |
| 2026-04-14 23:24 | -18.64200 | 54.42048 | 31984 ft | 475 kts | 329° |
| 2026-04-14 23:25 | -18.58333 | 54.38732 | 31977 ft | 477 kts | 333° |
| 2026-04-14 23:25 | -18.52247 | 54.35902 | 31980 ft | 478 kts | 334° |
| 2026-04-14 23:26 | -18.46178 | 54.33078 | 31983 ft | 478 kts | 334° |
| 2026-04-14 23:26 | -18.40058 | 54.30210 | 31982 ft | 478 kts | 334° |
| 2026-04-14 23:27 | -18.33929 | 54.27329 | 31978 ft | 479 kts | 334° |
| 2026-04-14 23:27 | -18.27789 | 54.24438 | 31977 ft | 479 kts | 334° |
| 2026-04-14 23:28 | -18.21716 | 54.21578 | 31976 ft | 478 kts | 334° |
| 2026-04-14 23:28 | -18.15630 | 54.18711 | 31975 ft | 480 kts | 334° |
| 2026-04-14 23:29 | -18.09460 | 54.15807 | 31972 ft | 480 kts | 334° |
| 2026-04-14 23:29 | -18.03364 | 54.12913 | 31971 ft | 480 kts | 334° |
| 2026-04-14 23:30 | -17.97252 | 54.10008 | 31971 ft | 481 kts | 334° |
| 2026-04-14 23:30 | -17.91136 | 54.07105 | 31971 ft | 479 kts | 334° |
| 2026-04-14 23:31 | -17.85061 | 54.04224 | 31970 ft | 478 kts | 334° |
| 2026-04-14 23:31 | -17.78980 | 54.01342 | 31972 ft | 479 kts | 334° |
| 2026-04-14 23:32 | -17.72982 | 53.98502 | 31972 ft | 479 kts | 334° |
| 2026-04-14 23:32 | -17.66888 | 53.95618 | 31972 ft | 479 kts | 334° |
| 2026-04-14 23:33 | -17.60790 | 53.92735 | 31970 ft | 478 kts | 334° |
| 2026-04-14 23:33 | -17.54829 | 53.89919 | 31967 ft | 479 kts | 334° |
| 2026-04-14 23:34 | -17.48737 | 53.87043 | 31961 ft | 478 kts | 334° |
| 2026-04-14 23:34 | -17.42669 | 53.84180 | 31961 ft | 478 kts | 334° |
| 2026-04-14 23:35 | -17.36526 | 53.81284 | 31958 ft | 477 kts | 334° |
| 2026-04-14 23:35 | -17.30425 | 53.78410 | 31960 ft | 477 kts | 334° |
| 2026-04-14 23:36 | -17.24345 | 53.75549 | 31958 ft | 476 kts | 334° |
| 2026-04-14 23:36 | -17.18273 | 53.72692 | 31959 ft | 477 kts | 334° |
| 2026-04-14 23:37 | -17.12192 | 53.69834 | 31956 ft | 476 kts | 334° |
| 2026-04-14 23:37 | -17.06144 | 53.66993 | 31955 ft | 476 kts | 334° |
| 2026-04-14 23:38 | -17.00105 | 53.64159 | 31957 ft | 475 kts | 334° |
| 2026-04-14 23:38 | -16.93955 | 53.61274 | 31949 ft | 476 kts | 334° |
| 2026-04-14 23:39 | -16.87815 | 53.58396 | 31954 ft | 475 kts | 334° |
| 2026-04-14 23:39 | -16.81754 | 53.55558 | 31950 ft | 475 kts | 334° |
| 2026-04-14 23:40 | -16.76296 | 53.53003 | 31948 ft | 475 kts | 334° |
| 2026-04-14 23:40 | -16.69826 | 53.49977 | 31946 ft | 473 kts | 333° |
| 2026-04-14 23:41 | -16.63811 | 53.47165 | 31949 ft | 472 kts | 333° |
| 2026-04-14 23:41 | -16.57878 | 53.44394 | 31945 ft | 473 kts | 333° |
| 2026-04-14 23:42 | -16.51851 | 53.41581 | 31947 ft | 472 kts | 333° |
| 2026-04-14 23:42 | -16.45832 | 53.38774 | 31947 ft | 472 kts | 333° |
| 2026-04-14 23:43 | -16.39738 | 53.35933 | 31944 ft | 472 kts | 333° |
| 2026-04-14 23:43 | -16.33554 | 53.33053 | 31949 ft | 471 kts | 333° |
| 2026-04-14 23:44 | -16.27406 | 53.30191 | 31953 ft | 470 kts | 333° |
| 2026-04-14 23:44 | -16.21258 | 53.27332 | 31953 ft | 470 kts | 333° |
| 2026-04-14 23:45 | -16.15140 | 53.24488 | 31950 ft | 470 kts | 333° |
| 2026-04-14 23:45 | -16.09051 | 53.21660 | 31948 ft | 470 kts | 333° |
| 2026-04-14 23:46 | -16.02906 | 53.18808 | 31950 ft | 470 kts | 333° |
| 2026-04-14 23:46 | -15.96743 | 53.15949 | 31951 ft | 470 kts | 333° |
| 2026-04-14 23:47 | -15.90618 | 53.13110 | 31950 ft | 471 kts | 333° |
| 2026-04-14 23:47 | -15.84688 | 53.10363 | 31950 ft | 469 kts | 333° |
| 2026-04-14 23:48 | -15.79408 | 53.07919 | 31948 ft | 468 kts | 333° |
| 2026-04-14 23:48 | -15.73428 | 53.05152 | 31948 ft | 470 kts | 333° |
| 2026-04-14 23:49 | -15.67453 | 53.02389 | 31945 ft | 469 kts | 333° |
| 2026-04-14 23:49 | -15.61387 | 52.99587 | 31943 ft | 469 kts | 333° |
| 2026-04-14 23:50 | -15.55342 | 52.96795 | 31940 ft | 471 kts | 333° |
| 2026-04-14 23:50 | -15.49285 | 52.94000 | 31940 ft | 468 kts | 334° |
| 2026-04-14 23:51 | -15.43289 | 52.91235 | 31938 ft | 470 kts | 334° |
| 2026-04-14 23:51 | -15.37231 | 52.88443 | 31937 ft | 470 kts | 334° |
| 2026-04-14 23:52 | -15.31199 | 52.85664 | 31935 ft | 470 kts | 334° |
| 2026-04-14 23:52 | -15.25111 | 52.82862 | 31935 ft | 469 kts | 334° |
| 2026-04-14 23:53 | -15.19022 | 52.80061 | 31931 ft | 470 kts | 334° |
| 2026-04-14 23:53 | -15.12888 | 52.77242 | 31929 ft | 469 kts | 334° |
| 2026-04-14 23:54 | -15.06577 | 52.74342 | 31929 ft | 470 kts | 334° |
| 2026-04-14 23:54 | -15.00220 | 52.71423 | 31927 ft | 471 kts | 334° |
| 2026-04-14 23:55 | -14.93947 | 52.68545 | 31927 ft | 471 kts | 334° |
| 2026-04-14 23:55 | -14.87578 | 52.65625 | 31928 ft | 470 kts | 334° |
| 2026-04-14 23:56 | -14.81397 | 52.62793 | 31926 ft | 470 kts | 334° |
| 2026-04-14 23:56 | -14.75376 | 52.60036 | 31924 ft | 468 kts | 334° |
| 2026-04-14 23:57 | -14.69305 | 52.57258 | 31933 ft | 468 kts | 334° |
| 2026-04-14 23:57 | -14.63093 | 52.54416 | 31938 ft | 469 kts | 334° |
| 2026-04-14 23:58 | -14.56882 | 52.51577 | 31940 ft | 469 kts | 334° |
| 2026-04-14 23:58 | -14.50642 | 52.48726 | 31937 ft | 467 kts | 334° |
| 2026-04-14 23:59 | -14.44478 | 52.45912 | 31935 ft | 468 kts | 334° |
| 2026-04-14 23:59 | -14.38166 | 52.43033 | 31936 ft | 467 kts | 334° |
| 2026-04-15 00:00 | -14.31888 | 52.40170 | 31933 ft | 466 kts | 334° |
| 2026-04-15 00:00 | -14.25591 | 52.37300 | 31927 ft | 467 kts | 334° |
| 2026-04-15 00:01 | -14.19322 | 52.34446 | 31934 ft | 466 kts | 334° |
| 2026-04-15 00:01 | -14.13058 | 52.31595 | 31933 ft | 466 kts | 334° |
| 2026-04-15 00:02 | -14.06760 | 52.28730 | 31933 ft | 466 kts | 334° |
| 2026-04-15 00:02 | -14.00501 | 52.25885 | 31928 ft | 466 kts | 334° |
| 2026-04-15 00:03 | -13.94197 | 52.23021 | 31929 ft | 467 kts | 334° |
| 2026-04-15 00:03 | -13.87912 | 52.20167 | 31931 ft | 465 kts | 334° |
| 2026-04-15 00:04 | -13.81775 | 52.17382 | 31927 ft | 466 kts | 334° |
| 2026-04-15 00:04 | -13.75528 | 52.14549 | 31932 ft | 465 kts | 334° |
| 2026-04-15 00:05 | -13.69293 | 52.11723 | 31926 ft | 465 kts | 334° |
| 2026-04-15 00:05 | -13.63237 | 52.08980 | 31932 ft | 466 kts | 334° |
| 2026-04-15 00:06 | -13.57287 | 52.06286 | 31923 ft | 464 kts | 334° |
| 2026-04-15 00:06 | -13.51197 | 52.03531 | 31931 ft | 465 kts | 334° |
| 2026-04-15 00:07 | -13.45032 | 52.00743 | 31927 ft | 464 kts | 335° |
| 2026-04-15 00:07 | -13.38923 | 51.97982 | 31926 ft | 463 kts | 335° |
| 2026-04-15 00:08 | -13.32969 | 51.95292 | 31930 ft | 464 kts | 335° |
| 2026-04-15 00:08 | -13.26992 | 51.92593 | 31921 ft | 464 kts | 335° |
| 2026-04-15 00:09 | -13.21048 | 51.89911 | 31913 ft | 464 kts | 335° |
| 2026-04-15 00:09 | -13.15071 | 51.87216 | 31907 ft | 462 kts | 335° |
| 2026-04-15 00:10 | -13.09123 | 51.84535 | 31909 ft | 463 kts | 335° |
| 2026-04-15 00:10 | -13.03102 | 51.81822 | 31906 ft | 464 kts | 335° |
| 2026-04-15 00:11 | -12.97313 | 51.79215 | 31905 ft | 464 kts | 335° |
| 2026-04-15 00:11 | -12.91368 | 51.76540 | 31904 ft | 464 kts | 335° |
| 2026-04-15 00:12 | -12.85489 | 51.73895 | 31907 ft | 463 kts | 335° |
| 2026-04-15 00:12 | -12.79602 | 51.71248 | 31909 ft | 464 kts | 335° |
| 2026-04-15 00:13 | -12.73686 | 51.68590 | 31907 ft | 464 kts | 335° |
| 2026-04-15 00:13 | -12.67647 | 51.65877 | 31905 ft | 465 kts | 335° |
| 2026-04-15 00:14 | -12.61748 | 51.63229 | 31902 ft | 464 kts | 335° |
| 2026-04-15 00:14 | -12.55733 | 51.60531 | 31903 ft | 465 kts | 335° |
| 2026-04-15 00:15 | -12.49794 | 51.57867 | 31904 ft | 464 kts | 335° |
| 2026-04-15 00:15 | -12.43955 | 51.55250 | 31901 ft | 464 kts | 335° |
| 2026-04-15 00:16 | -12.37845 | 51.52513 | 31900 ft | 465 kts | 336° |
| 2026-04-15 00:16 | -12.31824 | 51.49817 | 31902 ft | 465 kts | 336° |
| 2026-04-15 00:17 | -12.25863 | 51.47150 | 31906 ft | 464 kts | 336° |
| 2026-04-15 00:17 | -12.19869 | 51.44468 | 31906 ft | 466 kts | 335° |
| 2026-04-15 00:18 | -12.10924 | 51.40469 | 31905 ft | 465 kts | 336° |
| 2026-04-15 00:19 | -12.04922 | 51.37789 | 31905 ft | 464 kts | 336° |
| 2026-04-15 00:19 | -11.98981 | 51.35136 | 31905 ft | 465 kts | 336° |
| 2026-04-15 00:20 | -11.93158 | 51.32539 | 31908 ft | 465 kts | 336° |
| 2026-04-15 00:20 | -11.87294 | 51.29923 | 31913 ft | 465 kts | 336° |
| 2026-04-15 00:21 | -11.81316 | 51.27258 | 31909 ft | 465 kts | 336° |
| 2026-04-15 00:21 | -11.75339 | 51.24594 | 31909 ft | 465 kts | 336° |
| 2026-04-15 00:22 | -11.69367 | 51.21935 | 31909 ft | 465 kts | 336° |
| 2026-04-15 00:22 | -11.63341 | 51.19252 | 31911 ft | 466 kts | 336° |
| 2026-04-15 00:23 | -11.57407 | 51.16612 | 31910 ft | 466 kts | 336° |
| 2026-04-15 00:23 | -11.51417 | 51.13948 | 31910 ft | 467 kts | 336° |
| 2026-04-15 00:24 | -11.45479 | 51.11309 | 31911 ft | 467 kts | 336° |
| 2026-04-15 00:24 | -11.39496 | 51.08650 | 31909 ft | 468 kts | 336° |
| 2026-04-15 00:25 | -11.33464 | 51.05971 | 31910 ft | 469 kts | 336° |
| 2026-04-15 00:25 | -11.27473 | 51.03312 | 31909 ft | 469 kts | 335° |
| 2026-04-15 00:26 | -11.21628 | 51.00718 | 31909 ft | 469 kts | 336° |
| 2026-04-15 00:26 | -11.15643 | 50.98064 | 31911 ft | 469 kts | 335° |
| 2026-04-15 00:27 | -11.09633 | 50.95399 | 31906 ft | 469 kts | 335° |
| 2026-04-15 00:27 | -11.03614 | 50.92732 | 31905 ft | 470 kts | 336° |
| 2026-04-15 00:28 | -10.97640 | 50.90086 | 31895 ft | 469 kts | 335° |
| 2026-04-15 00:28 | -10.91642 | 50.87431 | 31886 ft | 471 kts | 335° |
| 2026-04-15 00:29 | -10.85581 | 50.84748 | 31890 ft | 470 kts | 335° |
| 2026-04-15 00:29 | -10.79640 | 50.82120 | 31888 ft | 470 kts | 335° |
| 2026-04-15 00:30 | -10.73672 | 50.79482 | 31889 ft | 470 kts | 335° |
| 2026-04-15 00:30 | -10.67652 | 50.76821 | 31888 ft | 472 kts | 335° |
| 2026-04-15 00:31 | -10.61660 | 50.74175 | 31888 ft | 471 kts | 335° |
| 2026-04-15 00:31 | -10.55644 | 50.71518 | 31888 ft | 470 kts | 335° |
| 2026-04-15 00:32 | -10.49608 | 50.68853 | 31889 ft | 471 kts | 335° |
| 2026-04-15 00:32 | -10.43577 | 50.66193 | 31887 ft | 471 kts | 335° |
| 2026-04-15 00:33 | -10.37577 | 50.63546 | 31888 ft | 472 kts | 335° |
| 2026-04-15 00:33 | -10.31518 | 50.60876 | 31887 ft | 472 kts | 335° |
| 2026-04-15 00:34 | -10.25479 | 50.58215 | 31887 ft | 474 kts | 335° |
| 2026-04-15 00:34 | -10.19413 | 50.55543 | 31886 ft | 473 kts | 335° |
| 2026-04-15 00:35 | -10.13392 | 50.52892 | 31887 ft | 473 kts | 334° |
| 2026-04-15 00:35 | -10.07336 | 50.50227 | 31886 ft | 473 kts | 335° |
| 2026-04-15 00:36 | -10.01287 | 50.47566 | 31886 ft | 473 kts | 334° |
| 2026-04-15 00:36 | -9.95380 | 50.44967 | 31886 ft | 474 kts | 334° |
| 2026-04-15 00:37 | -9.89398 | 50.42336 | 31884 ft | 474 kts | 334° |
| 2026-04-15 00:37 | -9.83277 | 50.39644 | 31886 ft | 474 kts | 334° |
| 2026-04-15 00:38 | -9.77331 | 50.37030 | 31885 ft | 475 kts | 334° |
| 2026-04-15 00:38 | -9.71215 | 50.34344 | 31887 ft | 474 kts | 335° |
| 2026-04-15 00:39 | -9.65076 | 50.31647 | 31890 ft | 475 kts | 334° |
| 2026-04-15 00:39 | -9.58983 | 50.28973 | 31889 ft | 475 kts | 334° |
| 2026-04-15 00:40 | -9.52893 | 50.26300 | 31890 ft | 475 kts | 334° |
| 2026-04-15 00:40 | -9.46798 | 50.23626 | 31889 ft | 475 kts | 334° |
| 2026-04-15 00:41 | -9.40661 | 50.20935 | 31890 ft | 475 kts | 334° |
| 2026-04-15 00:41 | -9.34568 | 50.18265 | 31889 ft | 476 kts | 334° |
| 2026-04-15 00:42 | -9.28463 | 50.15590 | 31888 ft | 475 kts | 334° |
| 2026-04-15 00:42 | -9.22360 | 50.12917 | 31889 ft | 475 kts | 334° |
| 2026-04-15 00:43 | -9.16263 | 50.10247 | 31889 ft | 476 kts | 334° |
| 2026-04-15 00:43 | -9.10190 | 50.07589 | 31887 ft | 476 kts | 334° |
| 2026-04-15 00:44 | -9.04285 | 50.05006 | 31889 ft | 476 kts | 334° |
| 2026-04-15 00:44 | -8.98166 | 50.02330 | 31889 ft | 477 kts | 334° |
| 2026-04-15 00:45 | -8.92052 | 49.99657 | 31888 ft | 476 kts | 334° |
| 2026-04-15 00:45 | -8.85926 | 49.96979 | 31886 ft | 475 kts | 334° |
| 2026-04-15 00:46 | -8.80448 | 49.94587 | 31876 ft | 474 kts | 334° |
| 2026-04-15 00:46 | -8.74380 | 49.91936 | 31868 ft | 475 kts | 334° |
| 2026-04-15 00:47 | -8.68279 | 49.89273 | 31868 ft | 475 kts | 334° |
| 2026-04-15 00:47 | -8.62210 | 49.86624 | 31868 ft | 475 kts | 334° |
| 2026-04-15 00:48 | -8.56127 | 49.83971 | 31867 ft | 475 kts | 334° |
| 2026-04-15 00:48 | -8.50063 | 49.81326 | 31867 ft | 474 kts | 334° |
| 2026-04-15 00:49 | -8.44061 | 49.78709 | 31867 ft | 474 kts | 334° |
| 2026-04-15 00:49 | -8.38096 | 49.76110 | 31866 ft | 474 kts | 334° |
| 2026-04-15 00:50 | -8.32056 | 49.73478 | 31866 ft | 474 kts | 334° |
| 2026-04-15 00:50 | -8.25965 | 49.70826 | 31866 ft | 474 kts | 334° |
| 2026-04-15 00:51 | -8.19932 | 49.68199 | 31866 ft | 474 kts | 334° |
| 2026-04-15 00:51 | -8.13841 | 49.65548 | 31865 ft | 474 kts | 334° |
| 2026-04-15 00:52 | -8.07784 | 49.62913 | 31868 ft | 473 kts | 334° |
| 2026-04-15 00:52 | -8.01720 | 49.60276 | 31866 ft | 473 kts | 334° |
| 2026-04-15 00:53 | -7.95676 | 49.57648 | 31865 ft | 472 kts | 334° |
| 2026-04-15 00:53 | -7.89635 | 49.55022 | 31864 ft | 472 kts | 334° |
| 2026-04-15 00:54 | -7.83578 | 49.52390 | 31865 ft | 472 kts | 334° |
| 2026-04-15 00:54 | -7.77551 | 49.49772 | 31866 ft | 472 kts | 334° |
| 2026-04-15 00:55 | -7.71506 | 49.47147 | 31863 ft | 472 kts | 334° |
| 2026-04-15 00:55 | -7.65424 | 49.44506 | 31864 ft | 473 kts | 334° |
| 2026-04-15 00:56 | -7.59410 | 49.41897 | 31867 ft | 472 kts | 334° |
| 2026-04-15 00:56 | -7.53366 | 49.39275 | 31867 ft | 470 kts | 334° |
| 2026-04-15 00:57 | -7.47303 | 49.36645 | 31870 ft | 471 kts | 334° |
| 2026-04-15 00:57 | -7.41269 | 49.34029 | 31881 ft | 472 kts | 334° |
| 2026-04-15 00:58 | -7.35227 | 49.31410 | 31881 ft | 471 kts | 334° |
| 2026-04-15 00:58 | -7.29195 | 49.28796 | 31881 ft | 473 kts | 334° |
| 2026-04-15 00:59 | -7.23226 | 49.26211 | 31885 ft | 471 kts | 334° |
| 2026-04-15 00:59 | -7.17201 | 49.23602 | 31890 ft | 472 kts | 334° |
| 2026-04-15 01:00 | -7.11161 | 49.20987 | 31890 ft | 471 kts | 334° |
| 2026-04-15 01:00 | -7.05110 | 49.18368 | 31889 ft | 471 kts | 334° |
| 2026-04-15 01:01 | -6.99059 | 49.15750 | 31889 ft | 471 kts | 334° |
| 2026-04-15 01:01 | -6.93031 | 49.13142 | 31890 ft | 470 kts | 334° |
| 2026-04-15 01:02 | -6.86996 | 49.10532 | 31890 ft | 472 kts | 334° |
| 2026-04-15 01:02 | -6.80953 | 49.07919 | 31890 ft | 472 kts | 334° |
| 2026-04-15 01:03 | -6.74922 | 49.05311 | 31886 ft | 473 kts | 334° |
| 2026-04-15 01:03 | -6.68853 | 49.02689 | 31884 ft | 472 kts | 334° |
| 2026-04-15 01:04 | -6.62820 | 49.00083 | 31876 ft | 472 kts | 334° |
| 2026-04-15 01:04 | -6.56777 | 48.97473 | 31869 ft | 471 kts | 334° |
| 2026-04-15 01:05 | -6.50740 | 48.94866 | 31867 ft | 471 kts | 334° |
| 2026-04-15 01:05 | -6.44672 | 48.92247 | 31868 ft | 472 kts | 334° |
| 2026-04-15 01:06 | -6.38633 | 48.89640 | 31867 ft | 473 kts | 334° |
| 2026-04-15 01:06 | -6.32562 | 48.87020 | 31867 ft | 474 kts | 334° |
| 2026-04-15 01:07 | -6.26467 | 48.84392 | 31867 ft | 473 kts | 334° |
| 2026-04-15 01:07 | -6.20412 | 48.81781 | 31867 ft | 473 kts | 334° |
| 2026-04-15 01:08 | -6.14340 | 48.79163 | 31867 ft | 474 kts | 334° |
| 2026-04-15 01:08 | -6.08382 | 48.76595 | 31865 ft | 473 kts | 334° |
| 2026-04-15 01:09 | -6.02309 | 48.73978 | 31866 ft | 475 kts | 334° |
| 2026-04-15 01:09 | -5.96211 | 48.71351 | 31863 ft | 475 kts | 334° |
| 2026-04-15 01:10 | -5.90163 | 48.68746 | 31863 ft | 473 kts | 334° |
| 2026-04-15 01:10 | -5.84085 | 48.66129 | 31864 ft | 472 kts | 334° |
| 2026-04-15 01:11 | -5.78027 | 48.63521 | 31862 ft | 473 kts | 334° |
| 2026-04-15 01:11 | -5.71958 | 48.60909 | 31864 ft | 474 kts | 334° |
| 2026-04-15 01:12 | -5.65885 | 48.58295 | 31867 ft | 472 kts | 334° |
| 2026-04-15 01:12 | -5.59838 | 48.55694 | 31865 ft | 473 kts | 334° |
| 2026-04-15 01:13 | -5.53781 | 48.53089 | 31864 ft | 472 kts | 334° |
| 2026-04-15 01:13 | -5.47714 | 48.50480 | 31865 ft | 473 kts | 334° |
| 2026-04-15 01:14 | -5.41661 | 48.47877 | 31867 ft | 473 kts | 334° |
| 2026-04-15 01:14 | -5.35579 | 48.45264 | 31868 ft | 473 kts | 334° |
| 2026-04-15 01:15 | -5.29521 | 48.42661 | 31874 ft | 471 kts | 334° |
| 2026-04-15 01:15 | -5.23475 | 48.40063 | 31881 ft | 472 kts | 334° |
| 2026-04-15 01:16 | -5.17422 | 48.37463 | 31883 ft | 472 kts | 334° |
| 2026-04-15 01:16 | -5.11410 | 48.34881 | 31883 ft | 471 kts | 334° |
| 2026-04-15 01:17 | -5.05357 | 48.32282 | 31891 ft | 471 kts | 334° |
| 2026-04-15 01:17 | -4.96288 | 48.28389 | 31888 ft | 472 kts | 334° |
| 2026-04-15 01:18 | -4.90197 | 48.25775 | 31889 ft | 473 kts | 334° |
| 2026-04-15 01:18 | -4.84035 | 48.23131 | 31883 ft | 473 kts | 334° |
| 2026-04-15 01:19 | -4.77993 | 48.20539 | 31878 ft | 472 kts | 334° |
| 2026-04-15 01:19 | -4.71944 | 48.17945 | 31870 ft | 472 kts | 334° |
| 2026-04-15 01:20 | -4.65746 | 48.15287 | 31867 ft | 471 kts | 334° |
| 2026-04-15 01:20 | -4.59623 | 48.12662 | 31867 ft | 472 kts | 334° |
| 2026-04-15 01:21 | -4.53583 | 48.10073 | 31867 ft | 471 kts | 334° |
| 2026-04-15 01:21 | -4.47447 | 48.07443 | 31870 ft | 472 kts | 334° |
| 2026-04-15 01:22 | -4.41367 | 48.04838 | 31866 ft | 473 kts | 334° |
| 2026-04-15 01:22 | -4.35256 | 48.02220 | 31867 ft | 472 kts | 334° |
| 2026-04-15 01:23 | -4.29115 | 47.99589 | 31867 ft | 472 kts | 334° |
| 2026-04-15 01:23 | -4.23002 | 47.96972 | 31869 ft | 473 kts | 334° |
| 2026-04-15 01:24 | -4.16941 | 47.94373 | 31867 ft | 472 kts | 334° |
| 2026-04-15 01:24 | -4.10886 | 47.91775 | 31868 ft | 472 kts | 334° |
| 2026-04-15 01:25 | -4.04765 | 47.89150 | 31868 ft | 472 kts | 334° |
| 2026-04-15 01:25 | -3.98705 | 47.86551 | 31869 ft | 472 kts | 334° |
| 2026-04-15 01:26 | -3.92607 | 47.83936 | 31867 ft | 472 kts | 334° |
| 2026-04-15 01:26 | -3.86564 | 47.81346 | 31869 ft | 474 kts | 334° |
| 2026-04-15 01:27 | -3.80500 | 47.78747 | 31867 ft | 473 kts | 334° |
| 2026-04-15 01:27 | -3.74436 | 47.76148 | 31868 ft | 473 kts | 334° |
| 2026-04-15 01:28 | -3.68339 | 47.73535 | 31868 ft | 473 kts | 334° |
| 2026-04-15 01:28 | -3.62280 | 47.70939 | 31869 ft | 473 kts | 334° |
| 2026-04-15 01:29 | -3.56228 | 47.68347 | 31874 ft | 474 kts | 334° |
| 2026-04-15 01:29 | -3.50138 | 47.65739 | 31874 ft | 474 kts | 334° |
| 2026-04-15 01:30 | -3.44213 | 47.63202 | 31879 ft | 474 kts | 334° |
| 2026-04-15 01:30 | -3.38122 | 47.60593 | 31881 ft | 474 kts | 334° |
| 2026-04-15 01:31 | -3.32053 | 47.57995 | 31886 ft | 473 kts | 334° |
| 2026-04-15 01:31 | -3.25964 | 47.55389 | 31887 ft | 474 kts | 334° |
| 2026-04-15 01:32 | -3.19891 | 47.52789 | 31887 ft | 473 kts | 334° |
| 2026-04-15 01:32 | -3.13826 | 47.50194 | 31885 ft | 474 kts | 334° |
| 2026-04-15 01:33 | -3.07743 | 47.47591 | 31885 ft | 474 kts | 334° |
| 2026-04-15 01:33 | -3.01683 | 47.44998 | 31888 ft | 475 kts | 334° |
| 2026-04-15 01:34 | -2.95596 | 47.42394 | 31884 ft | 473 kts | 334° |
| 2026-04-15 01:34 | -2.89525 | 47.39797 | 31885 ft | 473 kts | 334° |
| 2026-04-15 01:35 | -2.83451 | 47.37199 | 31886 ft | 474 kts | 334° |
| 2026-04-15 01:35 | -2.77483 | 47.34647 | 31882 ft | 474 kts | 334° |
| 2026-04-15 01:36 | -2.71416 | 47.32053 | 31879 ft | 474 kts | 335° |
| 2026-04-15 01:36 | -2.65310 | 47.29442 | 31877 ft | 474 kts | 335° |
| 2026-04-15 01:37 | -2.59216 | 47.26836 | 31873 ft | 475 kts | 335° |
| 2026-04-15 01:37 | -2.53104 | 47.24224 | 31871 ft | 474 kts | 335° |
| 2026-04-15 01:38 | -2.47027 | 47.21627 | 31869 ft | 475 kts | 335° |
| 2026-04-15 01:38 | -2.40926 | 47.19019 | 31870 ft | 475 kts | 335° |
| 2026-04-15 01:39 | -2.34858 | 47.16427 | 31870 ft | 475 kts | 335° |
| 2026-04-15 01:39 | -2.28742 | 47.13813 | 31870 ft | 475 kts | 335° |
| 2026-04-15 01:40 | -2.22642 | 47.11207 | 31870 ft | 475 kts | 335° |
| 2026-04-15 01:40 | -2.16536 | 47.08598 | 31869 ft | 475 kts | 335° |
| 2026-04-15 01:41 | -2.10482 | 47.06012 | 31870 ft | 475 kts | 335° |
| 2026-04-15 01:41 | -2.04351 | 47.03393 | 31870 ft | 477 kts | 335° |
| 2026-04-15 01:42 | -1.98262 | 47.00792 | 31868 ft | 477 kts | 335° |
| 2026-04-15 01:42 | -1.92418 | 46.98296 | 31867 ft | 477 kts | 335° |
| 2026-04-15 01:43 | -1.86628 | 46.95824 | 31867 ft | 476 kts | 335° |
| 2026-04-15 01:43 | -1.80478 | 46.93198 | 31876 ft | 476 kts | 335° |
| 2026-04-15 01:44 | -1.74372 | 46.90590 | 31884 ft | 477 kts | 335° |
| 2026-04-15 01:44 | -1.68258 | 46.87980 | 31887 ft | 478 kts | 335° |
| 2026-04-15 01:45 | -1.62143 | 46.85370 | 31887 ft | 478 kts | 335° |
| 2026-04-15 01:45 | -1.55989 | 46.82743 | 31888 ft | 478 kts | 335° |
| 2026-04-15 01:46 | -1.49874 | 46.80132 | 31888 ft | 478 kts | 335° |
| 2026-04-15 01:46 | -1.43732 | 46.77511 | 31888 ft | 478 kts | 335° |